Time;durP1;ratioP1;P1;durP2;ratioP2;P2;SDS_P1;SDS_P2;PMS_P1;PMS_P2;Temp;Humidity;BMP_temperature;BMP_pressure;BME280_temperature;BME280_humidity;BME280_pressure;Samples;Min_cycle;Max_cycle;Signal;HPM_P1;HPM_P2
2023/08/10 00:01:39;;;;;;;3.13;1.90;;;14.60;99.90;;;;;;4988551;28;38881;-91
2023/08/10 00:04:06;;;;;;;2.70;1.65;;;14.60;99.90;;;;;;4990697;28;39254;-92
2023/08/10 00:06:32;;;;;;;3.72;1.67;;;14.60;99.90;;;;;;4989725;28;37121;-92
2023/08/10 00:08:58;;;;;;;3.03;1.88;;;14.60;99.90;;;;;;4988393;28;39279;-91
2023/08/10 00:11:24;;;;;;;3.42;1.88;;;14.60;99.90;;;;;;4997300;28;37703;-91
2023/08/10 00:13:51;;;;;;;5.00;1.60;;;14.50;99.90;;;;;;4996806;28;37512;-91
2023/08/10 00:16:19;;;;;;;4.07;1.88;;;14.50;99.90;;;;;;4996190;28;38796;-89
2023/08/10 00:18:46;;;;;;;2.72;1.83;;;14.50;99.90;;;;;;4997908;28;36090;-90
2023/08/10 00:21:12;;;;;;;4.47;2.20;;;14.50;99.90;;;;;;4997660;28;37815;-92
2023/08/10 00:23:39;;;;;;;3.38;2.30;;;14.60;99.90;;;;;;4993158;28;39113;-90
2023/08/10 00:26:11;;;;;;;2.88;2.03;;;14.60;99.90;;;;;;4997771;28;37390;-92
2023/08/10 00:28:37;;;;;;;3.97;2.20;;;14.60;99.90;;;;;;4999715;28;36423;-92
2023/08/10 00:31:03;;;;;;;4.30;2.15;;;14.70;99.90;;;;;;4985914;28;37468;-91
2023/08/10 00:33:30;;;;;;;5.22;2.35;;;14.70;99.90;;;;;;4981716;28;38046;-89
2023/08/10 00:35:59;;;;;;;6.88;2.25;;;14.80;99.90;;;;;;5000227;28;37086;-93
2023/08/10 00:38:26;;;;;;;3.63;2.42;;;14.80;99.90;;;;;;4991332;28;36489;-92
2023/08/10 00:40:52;;;;;;;5.60;2.60;;;14.80;99.90;;;;;;4980125;28;38683;-92
2023/08/10 00:43:18;;;;;;;3.03;2.30;;;14.70;99.90;;;;;;4988297;28;38336;-92
2023/08/10 00:45:45;;;;;;;3.22;2.10;;;14.70;99.90;;;;;;4983385;28;38284;-92
2023/08/10 00:48:11;;;;;;;4.13;2.28;;;14.60;99.90;;;;;;4989386;28;36440;-92
2023/08/10 00:50:37;;;;;;;2.33;1.70;;;14.60;99.90;;;;;;4987322;28;36722;-92
2023/08/10 00:53:03;;;;;;;2.72;1.83;;;14.60;99.90;;;;;;4981867;28;37422;-92
2023/08/10 00:55:31;;;;;;;3.33;1.90;;;14.60;99.90;;;;;;4997402;28;38200;-92
2023/08/10 00:57:57;;;;;;;3.13;2.08;;;14.60;99.90;;;;;;4999559;28;36230;-92
2023/08/10 01:03:00;;;;;;;3.72;2.10;;;14.70;99.90;;;;;;5348359;22;20604;-78
2023/08/10 01:05:29;;;;;;;3.15;1.85;;;14.70;99.90;;;;;;4991846;28;37838;-77
2023/08/10 01:08:14;;;;;;;3.88;2.05;;;14.80;99.90;;;;;;4994084;28;36379;-78
2023/08/10 01:10:53;;;;;;;5.47;1.90;;;14.80;99.90;;;;;;4997048;28;46946;-77
2023/08/10 01:13:26;;;;;;;2.50;1.90;;;14.90;99.90;;;;;;5011146;28;38031;-78
2023/08/10 01:15:57;;;;;;;5.40;2.22;;;14.90;99.90;;;;;;4997758;28;36530;-77
2023/08/10 01:18:27;;;;;;;4.00;1.92;;;14.90;99.90;;;;;;5013938;28;37130;-77
2023/08/10 01:20:54;;;;;;;2.50;1.92;;;14.90;99.90;;;;;;4997937;28;36666;-75
2023/08/10 01:23:51;;;;;;;2.95;1.88;;;14.90;99.90;;;;;;5001217;28;38344;-77
2023/08/10 01:26:18;;;;;;;4.70;2.15;;;14.90;99.90;;;;;;5016775;28;38664;-77
2023/08/10 01:28:45;;;;;;;5.65;2.50;;;14.90;99.90;;;;;;5011733;28;36323;-76
2023/08/10 01:31:11;;;;;;;3.15;1.80;;;14.90;99.90;;;;;;5013708;28;38053;-76
2023/08/10 01:33:38;;;;;;;2.35;1.90;;;14.90;99.90;;;;;;5014669;28;39535;-76
2023/08/10 01:36:04;;;;;;;2.53;1.60;;;14.80;99.90;;;;;;5011977;28;38440;-76
2023/08/10 01:38:30;;;;;;;3.75;1.90;;;14.80;99.90;;;;;;4999901;28;37481;-76
2023/08/10 01:40:56;;;;;;;2.88;1.88;;;14.70;99.90;;;;;;4995594;28;38108;-76
2023/08/10 01:43:22;;;;;;;3.90;2.20;;;14.70;99.90;;;;;;5016625;28;36873;-76
2023/08/10 01:45:52;;;;;;;4.68;2.20;;;14.60;99.90;;;;;;5006318;28;39195;-77
2023/08/10 01:48:33;;;;;;;3.15;1.90;;;14.60;99.90;;;;;;4993665;28;36227;-77
2023/08/10 01:51:02;;;;;;;3.40;2.05;;;14.60;99.90;;;;;;5001047;28;38685;-77
2023/08/10 01:53:34;;;;;;;3.33;1.75;;;14.50;99.90;;;;;;4994148;28;46970;-78
2023/08/10 01:56:01;;;;;;;2.03;1.83;;;14.50;99.90;;;;;;5005103;28;38526;-77
2023/08/10 01:58:27;;;;;;;3.97;1.88;;;14.50;99.90;;;;;;4985953;28;47221;-77
2023/08/10 02:00:53;;;;;;;3.33;2.17;;;14.50;99.90;;;;;;5013679;28;40406;-77
2023/08/10 02:03:19;;;;;;;3.10;2.25;;;14.50;99.90;;;;;;5013454;28;38317;-77
2023/08/10 02:05:46;;;;;;;3.72;2.38;;;14.50;99.90;;;;;;5019313;28;37897;-77
2023/08/10 02:08:12;;;;;;;6.07;2.10;;;14.40;99.90;;;;;;4996518;28;36343;-78
2023/08/10 02:10:38;;;;;;;4.93;1.98;;;14.50;99.90;;;;;;5014225;28;38549;-78
2023/08/10 02:13:04;;;;;;;3.10;2.45;;;14.40;99.90;;;;;;5015533;28;37142;-78
2023/08/10 02:15:31;;;;;;;5.88;2.28;;;14.40;99.90;;;;;;5014025;28;38726;-77
2023/08/10 02:17:57;;;;;;;3.10;2.28;;;14.40;99.90;;;;;;4973176;28;35839;-77
2023/08/10 02:20:23;;;;;;;3.60;2.35;;;14.40;99.90;;;;;;4997013;28;37441;-76
2023/08/10 02:22:51;;;;;;;4.18;2.00;;;14.40;99.90;;;;;;5004307;28;36995;-77
2023/08/10 02:25:18;;;;;;;2.63;1.77;;;14.40;99.90;;;;;;4991024;28;37012;-76
2023/08/10 02:27:46;;;;;;;3.13;2.22;;;14.30;99.90;;;;;;4995456;28;36268;-77
2023/08/10 02:30:13;;;;;;;3.13;2.45;;;14.30;99.90;;;;;;5015303;28;40503;-76
2023/08/10 02:32:39;;;;;;;4.53;2.50;;;14.30;99.90;;;;;;5009443;28;39541;-77
2023/08/10 02:35:06;;;;;;;3.33;2.28;;;14.30;99.90;;;;;;4994346;28;38157;-77
2023/08/10 02:37:32;;;;;;;3.33;2.50;;;14.30;99.90;;;;;;5014359;28;37503;-77
2023/08/10 02:39:59;;;;;;;4.28;2.63;;;14.30;99.90;;;;;;4998952;28;38638;-77
2023/08/10 02:42:25;;;;;;;3.80;2.65;;;14.30;99.90;;;;;;4997371;28;35916;-78
2023/08/10 02:44:52;;;;;;;3.90;2.70;;;14.30;99.90;;;;;;5012414;28;37127;-77
2023/08/10 02:47:18;;;;;;;3.90;2.58;;;14.30;99.90;;;;;;5016697;28;37547;-76
2023/08/10 02:49:45;;;;;;;3.47;3.00;;;14.20;99.90;;;;;;5001045;28;37989;-77
2023/08/10 02:52:11;;;;;;;3.58;2.60;;;14.20;99.90;;;;;;5015323;28;38407;-77
2023/08/10 02:54:38;;;;;;;4.15;2.65;;;14.20;99.90;;;;;;5000262;28;38009;-77
2023/08/10 02:57:04;;;;;;;5.53;2.75;;;14.20;99.90;;;;;;4998591;28;37344;-78
2023/08/10 02:59:30;;;;;;;4.32;2.85;;;14.20;99.90;;;;;;5016087;28;40434;-78
2023/08/10 03:01:56;;;;;;;3.50;2.58;;;14.10;99.90;;;;;;5012040;28;38658;-77
2023/08/10 03:04:23;;;;;;;4.65;2.50;;;14.10;99.90;;;;;;4999959;28;36905;-77
2023/08/10 03:06:49;;;;;;;5.05;2.92;;;14.10;99.90;;;;;;4996502;28;35642;-76
2023/08/10 03:09:15;;;;;;;3.60;2.78;;;14.10;99.90;;;;;;4993879;28;37831;-77
2023/08/10 03:11:41;;;;;;;3.58;2.58;;;14.10;99.90;;;;;;4989163;28;39179;-77
2023/08/10 03:14:07;;;;;;;3.40;2.42;;;14.10;99.90;;;;;;4995708;28;38358;-78
2023/08/10 03:16:33;;;;;;;4.32;2.97;;;14.10;99.90;;;;;;4994267;28;35824;-77
2023/08/10 03:19:00;;;;;;;3.97;3.00;;;14.10;99.90;;;;;;4994059;28;37404;-77
2023/08/10 03:21:27;;;;;;;3.78;2.92;;;14.00;99.90;;;;;;4986630;28;46736;-77
2023/08/10 03:23:53;;;;;;;3.55;2.28;;;14.00;99.90;;;;;;4988502;28;35389;-77
2023/08/10 03:26:19;;;;;;;3.03;2.35;;;14.00;99.90;;;;;;4990939;28;36181;-77
2023/08/10 03:28:46;;;;;;;3.17;2.40;;;14.00;99.90;;;;;;5006762;28;38443;-77
2023/08/10 03:31:13;;;;;;;4.25;2.72;;;14.00;99.90;;;;;;4992235;28;39386;-78
2023/08/10 03:33:40;;;;;;;4.72;2.65;;;14.00;99.90;;;;;;4994041;28;36975;-77
2023/08/10 03:36:06;;;;;;;4.10;2.50;;;13.90;99.90;;;;;;4986248;28;35603;-77
2023/08/10 03:38:33;;;;;;;3.65;2.30;;;13.90;99.90;;;;;;5008274;28;38361;-77
2023/08/10 03:40:59;;;;;;;4.82;3.00;;;14.00;99.90;;;;;;5005446;28;38665;-76
2023/08/10 03:43:25;;;;;;;2.97;2.40;;;14.00;99.90;;;;;;4993522;28;38505;-76
2023/08/10 03:45:51;;;;;;;3.33;2.88;;;14.00;99.90;;;;;;4992836;28;36219;-76
2023/08/10 03:48:17;;;;;;;3.10;2.55;;;14.00;99.90;;;;;;4992484;28;38740;-76
2023/08/10 03:50:43;;;;;;;2.88;2.50;;;14.00;99.90;;;;;;4991768;28;37673;-76
2023/08/10 03:53:10;;;;;;;3.92;2.80;;;14.00;99.90;;;;;;5007505;28;39200;-76
2023/08/10 03:55:36;;;;;;;3.47;2.75;;;14.00;99.90;;;;;;4996388;28;36792;-77
2023/08/10 03:58:02;;;;;;;3.20;2.90;;;14.10;99.90;;;;;;4992111;28;37663;-76
2023/08/10 04:00:31;;;;;;;4.50;2.97;;;14.10;99.90;;;;;;4990230;28;38832;-76
2023/08/10 04:02:57;;;;;;;3.85;2.80;;;14.20;99.90;;;;;;5009709;28;38576;-77
2023/08/10 04:05:23;;;;;;;4.80;2.67;;;14.20;99.90;;;;;;5008754;28;37350;-76
2023/08/10 04:07:51;;;;;;;4.50;3.58;;;14.30;99.90;;;;;;5004768;28;39249;-76
2023/08/10 04:10:19;;;;;;;3.50;3.10;;;14.30;99.90;;;;;;5003976;28;37930;-76
2023/08/10 04:12:47;;;;;;;4.57;3.70;;;14.30;99.90;;;;;;5001795;28;20054;-77
2023/08/10 04:15:13;;;;;;;5.90;3.92;;;14.40;99.90;;;;;;4984952;28;35928;-77
2023/08/10 04:17:39;;;;;;;3.47;3.17;;;14.50;99.90;;;;;;5003564;28;40508;-76
2023/08/10 04:20:09;;;;;;;7.80;3.70;;;14.50;99.90;;;;;;5000169;28;38391;-77
2023/08/10 04:22:36;;;;;;;4.75;3.83;;;14.60;99.90;;;;;;4999061;28;48894;-76
2023/08/10 04:25:03;;;;;;;7.97;5.28;;;14.60;99.90;;;;;;4989295;28;36184;-76
2023/08/10 04:27:29;;;;;;;7.97;5.82;;;14.60;99.90;;;;;;4988999;28;46983;-76
2023/08/10 04:29:56;;;;;;;8.60;5.55;;;14.70;99.90;;;;;;4998927;28;37893;-77
2023/08/10 04:32:22;;;;;;;7.78;4.55;;;14.80;99.90;;;;;;4990278;28;37104;-77
2023/08/10 04:34:48;;;;;;;5.57;4.95;;;14.80;99.90;;;;;;4986153;28;36098;-77
2023/08/10 04:37:14;;;;;;;9.77;5.10;;;14.90;99.90;;;;;;4981604;28;38577;-76
2023/08/10 04:39:41;;;;;;;6.78;4.75;;;14.90;99.90;;;;;;4987158;28;37634;-76
2023/08/10 04:42:07;;;;;;;8.63;5.30;;;15.00;99.90;;;;;;4984225;28;37043;-77
2023/08/10 04:44:33;;;;;;;7.15;6.07;;;15.00;99.90;;;;;;4997774;28;37014;-77
2023/08/10 04:46:59;;;;;;;6.10;5.50;;;15.00;99.90;;;;;;4981001;28;37656;-78
2023/08/10 04:49:27;;;;;;;6.45;5.70;;;15.10;99.90;;;;;;4994953;28;39146;-77
2023/08/10 04:51:54;;;;;;;10.88;6.88;;;15.10;99.90;;;;;;4999970;28;38211;-77
2023/08/10 04:54:20;;;;;;;10.35;7.35;;;15.10;99.90;;;;;;4983968;28;36596;-76
2023/08/10 04:56:46;;;;;;;11.65;7.57;;;15.10;99.90;;;;;;4983589;28;37997;-77
2023/08/10 04:59:13;;;;;;;11.98;8.63;;;15.20;99.90;;;;;;4981817;28;37603;-78
2023/08/10 05:01:39;;;;;;;13.07;8.40;;;15.20;99.90;;;;;;4983505;28;37011;-78
2023/08/10 05:04:05;;;;;;;11.20;8.73;;;15.20;99.90;;;;;;4986138;28;36448;-77
2023/08/10 05:06:34;;;;;;;10.52;8.65;;;15.30;99.90;;;;;;4983656;28;38532;-77
2023/08/10 05:09:01;;;;;;;11.70;8.68;;;15.30;99.90;;;;;;4989049;28;37750;-77
2023/08/10 05:11:28;;;;;;;10.30;8.77;;;15.30;99.90;;;;;;4983533;28;47404;-77
2023/08/10 05:13:54;;;;;;;13.07;9.98;;;15.40;99.90;;;;;;4991377;28;36505;-78
2023/08/10 05:16:21;;;;;;;16.38;9.35;;;15.40;99.90;;;;;;4988764;28;37921;-78
2023/08/10 05:18:56;;;;;;;14.65;9.88;;;15.40;99.90;;;;;;4993932;28;38451;-76
2023/08/10 05:21:22;;;;;;;13.30;9.13;;;15.40;99.90;;;;;;4979632;28;38789;-77
2023/08/10 05:23:48;;;;;;;10.10;8.50;;;15.40;99.90;;;;;;4985254;28;37129;-77
2023/08/10 05:26:15;;;;;;;13.38;9.10;;;15.40;99.90;;;;;;4987298;28;37582;-77
2023/08/10 05:28:42;;;;;;;9.60;8.57;;;15.50;99.90;;;;;;5002439;28;38178;-76
2023/08/10 05:31:08;;;;;;;13.30;8.85;;;15.50;99.90;;;;;;4990076;28;38575;-76
2023/08/10 05:33:34;;;;;;;14.68;10.10;;;15.50;99.90;;;;;;4996237;28;34730;-76
2023/08/10 05:36:00;;;;;;;13.80;9.30;;;15.50;99.90;;;;;;5003627;28;37217;-76
2023/08/10 05:38:29;;;;;;;15.20;10.50;;;15.50;99.90;;;;;;4991829;28;46573;-78
2023/08/10 05:40:56;;;;;;;12.43;9.73;;;15.50;99.90;;;;;;4991610;28;37030;-77
2023/08/10 05:43:22;;;;;;;10.90;9.55;;;15.50;99.90;;;;;;4996905;28;36584;-78
2023/08/10 05:45:48;;;;;;;18.08;9.77;;;15.50;99.90;;;;;;5004323;28;40201;-78
2023/08/10 05:48:14;;;;;;;14.32;9.55;;;15.50;99.90;;;;;;5009218;28;38620;-78
2023/08/10 05:50:41;;;;;;;11.70;10.18;;;15.50;99.90;;;;;;4987403;28;36946;-79
2023/08/10 05:53:07;;;;;;;12.95;9.68;;;15.50;99.90;;;;;;5006983;28;37697;-78
2023/08/10 05:55:34;;;;;;;11.98;9.55;;;15.60;99.90;;;;;;5012850;28;39274;-78
2023/08/10 05:58:01;;;;;;;11.10;8.95;;;15.60;99.90;;;;;;4992445;28;38683;-78
2023/08/10 06:00:27;;;;;;;11.07;8.07;;;15.60;99.90;;;;;;4993672;28;47295;-78
2023/08/10 06:02:54;;;;;;;10.07;7.97;;;15.70;99.90;;;;;;4994698;28;37210;-78
2023/08/10 06:05:20;;;;;;;14.07;8.30;;;15.80;99.90;;;;;;4989586;28;37499;-79
2023/08/10 06:07:47;;;;;;;10.63;8.48;;;15.80;99.90;;;;;;4994240;28;38686;-78
2023/08/10 06:10:18;;;;;;;15.85;7.68;;;15.90;99.90;;;;;;5007749;28;38849;-78
2023/08/10 06:12:45;;;;;;;10.50;7.93;;;15.90;99.90;;;;;;5006052;28;37861;-78
2023/08/10 06:15:12;;;;;;;9.70;7.25;;;16.00;99.90;;;;;;5008879;28;39207;-79
2023/08/10 06:17:38;;;;;;;12.52;7.55;;;16.10;99.90;;;;;;5011083;28;39764;-80
2023/08/10 06:20:21;;;;;;;9.15;6.78;;;16.10;99.90;;;;;;5010365;28;38084;-78
2023/08/10 06:22:48;;;;;;;9.90;7.22;;;16.30;99.90;;;;;;5011426;28;46989;-78
2023/08/10 06:25:15;;;;;;;13.68;8.18;;;16.30;99.90;;;;;;5016250;28;38608;-78
2023/08/10 06:27:42;;;;;;;11.48;8.23;;;16.40;99.90;;;;;;5002655;28;38426;-77
2023/08/10 06:30:08;;;;;;;9.48;7.10;;;16.50;99.90;;;;;;4993241;28;38769;-78
2023/08/10 06:32:35;;;;;;;11.10;7.10;;;16.50;99.90;;;;;;5013405;28;47504;-77
2023/08/10 06:35:02;;;;;;;10.57;6.68;;;16.70;99.90;;;;;;4997215;28;39149;-77
2023/08/10 06:37:28;;;;;;;15.93;7.45;;;16.80;99.90;;;;;;5015321;28;38543;-78
2023/08/10 06:39:54;;;;;;;9.90;6.72;;;17.00;99.90;;;;;;4992717;28;38684;-77
2023/08/10 06:42:20;;;;;;;11.25;7.30;;;17.30;99.90;;;;;;5008541;28;37576;-77
2023/08/10 06:44:46;;;;;;;10.82;6.38;;;17.40;99.90;;;;;;5003279;28;39512;-76
2023/08/10 06:47:12;;;;;;;10.00;5.95;;;17.50;99.90;;;;;;5006465;28;38630;-77
2023/08/10 06:49:38;;;;;;;8.05;5.78;;;17.50;99.90;;;;;;4990976;28;37987;-76
2023/08/10 06:52:05;;;;;;;9.00;5.90;;;17.60;99.90;;;;;;4993646;28;35921;-76
2023/08/10 06:54:31;;;;;;;7.47;5.40;;;17.60;99.90;;;;;;5004587;28;38828;-76
2023/08/10 06:56:57;;;;;;;7.22;5.20;;;17.50;99.90;;;;;;4994774;28;37595;-77
2023/08/10 06:59:23;;;;;;;7.78;4.97;;;17.50;99.90;;;;;;5000015;28;37001;-77
2023/08/10 07:01:50;;;;;;;8.57;5.05;;;17.50;99.90;;;;;;5011558;28;37271;-80
2023/08/10 07:04:17;;;;;;;10.85;5.30;;;17.40;99.90;;;;;;5017243;28;38048;-80
2023/08/10 07:06:44;;;;;;;11.68;5.18;;;17.50;99.90;;;;;;5033960;28;38816;-78
2023/08/10 07:09:10;;;;;;;11.45;6.95;;;17.60;99.90;;;;;;4995376;28;36964;-78
2023/08/10 07:11:42;;;;;;;9.35;5.97;;;17.50;99.90;;;;;;4991045;28;37344;-79
2023/08/10 07:14:08;;;;;;;13.80;6.55;;;17.50;99.90;;;;;;5001517;28;37863;-81
2023/08/10 07:16:34;;;;;;;11.40;7.93;;;17.60;99.90;;;;;;5000133;28;37445;-77
2023/08/10 07:19:00;;;;;;;7.88;7.00;;;17.60;99.90;;;;;;5001638;28;36957;-77
2023/08/10 07:21:26;;;;;;;10.20;7.43;;;17.70;99.90;;;;;;4993405;28;46820;-77
2023/08/10 07:23:52;;;;;;;11.57;7.45;;;17.70;99.90;;;;;;5018173;28;38518;-77
2023/08/10 07:26:19;;;;;;;14.38;8.38;;;17.80;99.90;;;;;;4989866;28;37367;-77
2023/08/10 07:28:45;;;;;;;13.38;8.77;;;17.90;99.90;;;;;;4999000;28;37279;-78
2023/08/10 07:31:12;;;;;;;12.95;7.72;;;17.80;99.90;;;;;;5013896;28;36983;-77
2023/08/10 07:33:38;;;;;;;12.93;8.73;;;17.80;99.90;;;;;;5000458;28;37855;-77
2023/08/10 07:36:04;;;;;;;14.50;7.72;;;17.80;99.90;;;;;;5014927;28;38503;-78
2023/08/10 07:38:31;;;;;;;10.90;7.95;;;17.90;99.90;;;;;;5001286;28;38389;-78
2023/08/10 07:40:57;;;;;;;10.65;7.85;;;17.90;99.90;;;;;;5002823;28;38284;-77
2023/08/10 07:43:23;;;;;;;14.98;8.77;;;18.00;99.90;;;;;;4997606;28;38810;-76
2023/08/10 07:45:49;;;;;;;13.63;8.07;;;18.00;99.90;;;;;;4999003;28;38528;-78
2023/08/10 07:48:18;;;;;;;13.30;7.40;;;18.10;99.90;;;;;;4984438;28;36785;-78
2023/08/10 07:50:44;;;;;;;13.90;8.43;;;18.00;99.90;;;;;;4992357;28;34835;-78
2023/08/10 07:53:11;;;;;;;10.73;7.32;;;18.00;99.90;;;;;;5004046;28;40944;-78
2023/08/10 07:55:37;;;;;;;11.85;6.82;;;18.00;99.90;;;;;;4989131;28;36382;-78
2023/08/10 07:58:03;;;;;;;10.40;6.53;;;18.00;99.90;;;;;;4988431;28;37490;-78
2023/08/10 08:00:29;;;;;;;8.60;6.32;;;18.00;99.90;;;;;;5002604;28;37847;-78
2023/08/10 08:02:55;;;;;;;9.85;5.80;;;18.10;99.90;;;;;;5006876;28;38441;-77
2023/08/10 08:05:21;;;;;;;8.85;6.10;;;18.20;99.90;;;;;;5005239;28;38150;-77
2023/08/10 08:07:48;;;;;;;8.60;6.22;;;18.20;99.90;;;;;;5006384;28;39917;-78
2023/08/10 08:10:14;;;;;;;11.18;6.40;;;18.20;99.90;;;;;;4983992;28;36398;-77
2023/08/10 08:12:40;;;;;;;7.75;5.60;;;18.20;99.90;;;;;;4991254;28;38022;-77
2023/08/10 08:15:08;;;;;;;5.75;4.93;;;18.10;99.90;;;;;;5004390;28;38202;-77
2023/08/10 08:18:12;;;;;;;7.28;4.90;;;18.20;99.90;;;;;;5003305;28;38836;-76
2023/08/10 08:20:38;;;;;;;6.78;4.60;;;18.30;99.90;;;;;;4991980;28;47171;-76
2023/08/10 08:23:06;;;;;;;7.78;4.90;;;18.30;99.90;;;;;;5007590;28;38139;-77
2023/08/10 08:25:33;;;;;;;5.68;4.45;;;18.40;99.90;;;;;;5006866;28;38083;-75
2023/08/10 08:27:59;;;;;;;7.55;4.72;;;18.40;99.90;;;;;;4995905;28;39019;-76
2023/08/10 08:30:27;;;;;;;6.40;3.78;;;18.50;99.90;;;;;;4999967;28;36488;-76
2023/08/10 08:32:53;;;;;;;7.05;3.88;;;18.40;99.90;;;;;;5002394;28;37794;-77
2023/08/10 08:35:19;;;;;;;5.82;3.80;;;18.40;99.90;;;;;;5018360;28;38964;-78
2023/08/10 08:37:45;;;;;;;5.07;3.90;;;18.60;99.90;;;;;;4994129;28;37374;-77
2023/08/10 08:40:12;;;;;;;7.75;4.10;;;18.60;99.90;;;;;;4999785;28;36198;-76
2023/08/10 08:42:39;;;;;;;5.97;4.13;;;18.60;99.90;;;;;;4994713;28;39376;-75
2023/08/10 08:45:05;;;;;;;7.70;4.80;;;18.70;99.90;;;;;;4995590;28;37568;-77
2023/08/10 08:47:31;;;;;;;6.07;4.50;;;18.70;99.90;;;;;;4994259;28;38411;-77
2023/08/10 08:50:00;;;;;;;6.88;4.47;;;18.80;99.90;;;;;;5009118;28;38101;-77
2023/08/10 08:52:26;;;;;;;4.72;3.95;;;18.90;99.90;;;;;;5008717;28;39838;-77
2023/08/10 08:54:54;;;;;;;7.00;3.70;;;18.90;99.90;;;;;;4995530;28;37156;-77
2023/08/10 08:57:20;;;;;;;4.70;3.38;;;19.00;99.90;;;;;;4989827;28;37654;-77
2023/08/10 08:59:46;;;;;;;6.40;3.92;;;19.00;99.90;;;;;;4991001;28;36137;-77
2023/08/10 09:02:13;;;;;;;3.65;2.92;;;19.20;99.90;;;;;;5006741;28;39649;-78
2023/08/10 09:04:39;;;;;;;4.03;2.60;;;19.20;99.90;;;;;;4991287;28;37223;-77
2023/08/10 09:07:06;;;;;;;7.57;2.58;;;19.40;99.90;;;;;;5014497;28;38839;-77
2023/08/10 09:09:34;;;;;;;4.40;2.00;;;19.40;99.50;;;;;;5006784;28;36324;-77
2023/08/10 09:12:30;;;;;;;3.97;1.70;;;19.60;99.90;;;;;;5011903;28;38773;-77
2023/08/10 09:15:08;;;;;;;2.92;1.70;;;19.60;99.90;;;;;;4993686;28;47093;-76
2023/08/10 09:17:46;;;;;;;6.47;1.60;;;19.70;99.90;;;;;;5011930;28;48250;-76
2023/08/10 09:20:26;;;;;;;2.40;1.65;;;19.70;86.10;;;;;;4995041;28;36420;-76
2023/08/10 09:22:54;;;;;;;2.35;1.80;;;19.90;98.80;;;;;;5002824;28;39112;-77
2023/08/10 09:25:20;;;;;;;3.20;1.70;;;20.20;99.90;;;;;;4989826;28;38848;-77
2023/08/10 09:27:48;;;;;;;2.38;1.50;;;20.50;89.30;;;;;;4999116;28;37621;-77
2023/08/10 09:30:16;;;;;;;3.53;1.50;;;20.70;99.50;;;;;;4992265;28;37102;-78
2023/08/10 09:32:46;;;;;;;4.45;1.45;;;20.80;68.40;;;;;;4990356;28;37705;-77
2023/08/10 09:35:17;;;;;;;3.58;1.80;;;20.90;89.80;;;;;;5007399;28;38638;-78
2023/08/10 09:37:46;;;;;;;2.90;1.70;;;20.90;55.50;;;;;;4998510;28;36835;-78
2023/08/10 09:40:15;;;;;;;3.72;1.67;;;20.80;50.80;;;;;;4987137;28;36426;-79
2023/08/10 09:42:41;;;;;;;1.52;1.23;;;21.10;84.60;;;;;;5001109;28;37700;-78
2023/08/10 09:45:12;;;;;;;1.65;0.90;;;21.50;63.60;;;;;;4988424;28;37231;-78
2023/08/10 09:47:41;;;;;;;3.43;1.30;;;21.60;71.20;;;;;;5007151;28;38925;-78
2023/08/10 09:50:12;;;;;;;4.38;1.52;;;21.70;37.80;;;;;;4985145;28;37065;-78
2023/08/10 09:52:39;;;;;;;1.75;1.27;;;21.70;46.70;;;;;;4996548;28;39145;-78
2023/08/10 09:55:07;;;;;;;3.88;1.60;;;22.00;94.30;;;;;;4991375;28;39700;-78
2023/08/10 09:57:34;;;;;;;3.35;1.20;;;22.00;49.80;;;;;;5012826;28;49099;-78
2023/08/10 10:00:01;;;;;;;2.53;1.45;;;21.80;10.80;;;;;;5002645;28;36301;-79
2023/08/10 10:02:27;;;;;;;2.92;1.08;;;21.60;4.90;;;;;;5027083;28;38006;-80
2023/08/10 10:04:54;;;;;;;1.33;0.98;;;21.90;64.00;;;;;;5021069;28;39268;-79
2023/08/10 10:07:29;;;;;;;3.35;1.20;;;22.20;68.30;;;;;;5005178;28;37020;-79
2023/08/10 10:09:57;;;;;;;4.63;1.40;;;22.40;6.40;;;;;;5019491;28;37566;-79
2023/08/10 10:12:24;;;;;;;3.08;1.30;;;22.40;1.00;;;;;;4984532;28;37875;-80
2023/08/10 10:14:52;;;;;;;2.85;1.20;;;22.50;1.00;;;;;;5019177;28;38960;-79
2023/08/10 10:17:20;;;;;;;2.17;1.10;;;22.50;28.60;;;;;;5026227;28;39161;-80
2023/08/10 10:19:50;;;;;;;2.67;1.13;;;22.90;49.00;;;;;;4997578;28;36336;-80
2023/08/10 10:22:18;;;;;;;2.92;1.20;;;23.20;1.10;;;;;;4991522;28;37844;-79
2023/08/10 10:24:44;;;;;;;4.05;1.27;;;23.30;1.00;;;;;;4989568;28;37255;-82
2023/08/10 10:27:14;;;;;;;4.22;1.25;;;23.00;6.40;;;;;;5007157;28;38431;-81
2023/08/10 10:29:57;;;;;;;2.80;1.38;;;23.30;25.70;;;;;;5024560;28;37262;-82
2023/08/10 10:32:24;;;;;;;3.50;1.58;;;23.30;1.00;;;;;;5023147;28;38884;-81
2023/08/10 10:34:52;;;;;;;1.52;1.10;;;23.00;1.00;;;;;;5024910;28;38724;-81
2023/08/10 10:37:27;;;;;;;2.05;1.40;;;23.20;27.60;;;;;;5019019;28;37815;-83
2023/08/10 10:40:16;;;;;;;4.25;1.60;;;23.70;34.70;;;;;;5023250;28;34748;-84
2023/08/10 10:43:01;;;;;;;3.22;1.65;;;24.00;1.00;;;;;;5023574;28;47900;-82
2023/08/10 10:45:28;;;;;;;4.45;1.90;;;23.60;1.00;;;;;;5022013;28;48541;-82
2023/08/10 10:47:57;;;;;;;3.92;1.58;;;23.70;1.00;;;;;;5030217;28;39601;-80
2023/08/10 10:50:24;;;;;;;1.50;1.20;;;23.70;1.00;;;;;;5041101;28;38220;-80
2023/08/10 10:53:40;;;;;;;2.33;1.20;;;23.90;1.00;;;;;;5027029;28;40255;-87
2023/08/10 10:56:07;;;;;;;5.32;1.90;;;24.00;1.00;;;;;;5032405;28;49181;-78
2023/08/10 10:58:34;;;;;;;4.15;1.58;;;23.70;1.00;;;;;;5025984;28;38132;-85
2023/08/10 11:01:00;;;;;;;3.45;2.00;;;23.50;1.00;;;;;;5024608;28;38671;-85
2023/08/10 11:03:33;;;;;;;2.97;2.42;;;23.60;1.00;;;;;;4995125;28;37883;-83
2023/08/10 11:06:16;;;;;;;6.18;2.30;;;23.40;1.00;;;;;;5014131;28;38847;-84
2023/08/10 11:09:40;;;;;;;;;;;23.50;1.00;;;;;;5004895;28;48831;-80
2023/08/10 11:12:56;;;;;;;2.63;1.77;;;23.50;1.00;;;;;;4958955;28;49416;-82
2023/08/10 11:15:29;;;;;;;5.00;1.52;;;23.70;1.00;;;;;;5010012;28;40806;-85
2023/08/10 11:17:57;;;;;;;4.38;2.20;;;24.10;1.00;;;;;;4990714;28;38568;-84
2023/08/10 11:20:24;;;;;;;4.70;2.42;;;23.80;1.00;;;;;;5019993;28;37613;-84
2023/08/10 11:22:52;;;;;;;5.60;2.65;;;24.00;1.00;;;;;;4998544;28;36110;-85
2023/08/10 11:25:22;;;;;;;3.22;1.80;;;24.00;1.00;;;;;;4996858;28;37958;-85
2023/08/10 11:27:51;;;;;;;2.58;2.38;;;24.20;1.00;;;;;;5013503;28;38674;-83
2023/08/10 11:30:20;;;;;;;2.85;1.58;;;24.10;1.00;;;;;;4993333;28;37424;-84
2023/08/10 11:32:48;;;;;;;4.15;1.70;;;24.70;1.00;;;;;;4993025;28;35918;-86
2023/08/10 11:35:17;;;;;;;2.28;1.98;;;25.20;1.60;;;;;;4990620;28;37664;-86
2023/08/10 11:37:44;;;;;;;3.22;1.95;;;25.50;1.00;;;;;;4998662;28;37492;-84
2023/08/10 11:40:15;;;;;;;4.25;2.08;;;24.50;1.00;;;;;;4993822;28;38148;-83
2023/08/10 11:42:49;;;;;;;4.97;1.63;;;24.70;11.20;;;;;;4987795;28;36425;-84
2023/08/10 11:45:19;;;;;;;2.10;1.80;;;24.60;1.00;;;;;;4977040;28;39354;-85
2023/08/10 11:47:55;;;;;;;5.53;2.30;;;24.70;1.00;;;;;;4991865;28;37268;-77
2023/08/10 11:50:22;;;;;;;5.05;2.22;;;25.20;1.00;;;;;;4999430;28;38713;-76
2023/08/10 11:52:49;;;;;;;4.53;2.50;;;25.20;1.00;;;;;;4988771;28;35960;-77
2023/08/10 11:55:18;;;;;;;3.13;1.50;;;24.80;1.00;;;;;;4983045;28;38289;-77
2023/08/10 11:57:53;;;;;;;4.20;2.20;;;24.50;1.00;;;;;;4991210;28;37580;-77
2023/08/10 12:00:30;;;;;;;3.58;2.58;;;24.60;1.00;;;;;;4988361;28;37223;-77
2023/08/10 12:03:00;;;;;;;5.50;2.53;;;24.50;1.00;;;;;;4989368;28;47520;-78
2023/08/10 12:05:52;;;;;;;3.80;2.33;;;24.40;1.00;;;;;;4984507;28;46930;-77
2023/08/10 12:08:27;;;;;;;3.35;2.60;;;24.80;1.00;;;;;;4988873;28;37479;-92
2023/08/10 12:11:02;;;;;;;4.63;3.00;;;25.20;1.00;;;;;;4985275;28;36800;-85
2023/08/10 12:13:28;;;;;;;4.50;2.47;;;25.40;1.00;;;;;;4991954;28;37147;-87
2023/08/10 12:15:57;;;;;;;7.82;4.43;;;25.10;24.00;;;;;;4996479;28;38790;-86
2023/08/10 12:18:25;;;;;;;4.95;4.40;;;24.70;1.00;;;;;;4994232;28;38726;-84
2023/08/10 12:20:53;;;;;;;5.00;3.90;;;24.60;1.00;;;;;;4993644;28;37817;-85
2023/08/10 12:23:20;;;;;;;6.53;4.35;;;24.60;1.00;;;;;;5004140;28;36833;-85
2023/08/10 12:25:48;;;;;;;5.65;3.40;;;24.30;1.00;;;;;;5000997;28;38930;-86
2023/08/10 12:28:17;;;;;;;6.22;3.70;;;24.30;6.50;;;;;;4987293;28;37723;-84
2023/08/10 12:30:48;;;;;;;6.75;3.40;;;24.60;1.00;;;;;;5008547;28;38441;-85
2023/08/10 12:33:15;;;;;;;6.65;3.50;;;25.00;1.00;;;;;;4991962;28;36779;-84
2023/08/10 12:35:42;;;;;;;7.82;5.65;;;25.60;1.00;;;;;;4988814;28;38071;-84
2023/08/10 12:38:12;;;;;;;8.93;5.75;;;25.30;1.00;;;;;;4991789;28;37259;-83
2023/08/10 12:40:39;;;;;;;7.07;4.50;;;24.80;1.00;;;;;;4983757;28;37832;-82
2023/08/10 12:43:06;;;;;;;6.15;3.67;;;24.60;1.00;;;;;;4994695;28;38123;-83
2023/08/10 12:45:32;;;;;;;5.78;4.28;;;25.00;1.00;;;;;;4979022;28;37715;-81
2023/08/10 12:47:59;;;;;;;9.50;5.20;;;25.00;1.00;;;;;;5000216;28;37614;-84
2023/08/10 12:50:26;;;;;;;7.82;4.40;;;25.10;1.00;;;;;;5005881;28;38647;-84
2023/08/10 12:52:53;;;;;;;5.57;4.55;;;24.80;1.00;;;;;;4997826;28;36035;-84
2023/08/10 12:55:20;;;;;;;7.85;5.45;;;25.20;1.00;;;;;;5016216;28;38898;-84
2023/08/10 12:57:46;;;;;;;9.93;6.50;;;25.20;1.00;;;;;;4991463;28;37956;-83